createdAt,value
2019-04-30T00:00:45.962Z,3.90
2019-04-30T00:05:53.799Z,4.47
2019-04-30T00:10:58.826Z,4.60
2019-04-30T00:16:05.365Z,5.20
2019-04-30T00:21:15.222Z,5.07
2019-04-30T00:26:18.069Z,5.20
2019-04-30T00:31:25.669Z,5.23
2019-04-30T00:36:34.192Z,6.00
2019-04-30T00:41:39.923Z,6.00
2019-04-30T00:46:45.480Z,7.03
2019-04-30T00:51:54.703Z,7.70
2019-04-30T00:57:03.712Z,8.20
2019-04-30T01:02:29.172Z,9.50
2019-04-30T01:07:31.932Z,10.40
2019-04-30T01:12:44.212Z,10.60
2019-04-30T01:17:45.295Z,11.75
2019-04-30T01:22:51.466Z,11.17
2019-04-30T01:27:58.579Z,12.60
2019-04-30T01:33:04.018Z,13.47
2019-04-30T01:38:12.722Z,15.53
2019-04-30T01:43:16.516Z,16.80
2019-04-30T01:48:21.846Z,16.50
2019-04-30T01:53:28.571Z,16.00
2019-04-30T01:58:49.473Z,15.25
2019-04-30T02:03:55.241Z,15.67
2019-04-30T02:09:00.642Z,16.63
2019-04-30T02:14:06.347Z,16.53
2019-04-30T02:19:11.672Z,16.03
2019-04-30T02:24:19.054Z,16.97
2019-04-30T02:29:24.130Z,17.83
2019-04-30T02:34:41.148Z,18.93
2019-04-30T02:39:45.981Z,19.07
2019-04-30T02:44:52.956Z,18.70
2019-04-30T02:50:13.676Z,20.17
2019-04-30T02:55:09.418Z,19.00
2019-04-30T03:00:20.627Z,18.20
2019-04-30T03:05:25.229Z,17.67
2019-04-30T03:10:30.652Z,17.00
2019-04-30T03:15:35.950Z,16.07
2019-04-30T03:20:52.685Z,16.45
2019-04-30T03:25:59.698Z,16.60
2019-04-30T03:31:05.427Z,16.83
2019-04-30T03:36:12.278Z,19.10
2019-04-30T03:41:19.924Z,17.30
2019-04-30T03:46:24.871Z,16.27
2019-04-30T03:51:30.460Z,16.73
2019-04-30T03:56:35.892Z,17.70
2019-04-30T04:01:49.772Z,17.97
2019-04-30T04:07:04.118Z,18.10
2019-04-30T04:12:20.512Z,17.43
2019-04-30T04:17:25.020Z,15.43
2019-04-30T04:22:30.873Z,16.63
2019-04-30T04:27:36.340Z,14.73
2019-04-30T04:32:41.840Z,16.30
2019-04-30T04:37:49.555Z,15.47
2019-04-30T04:42:54.191Z,15.60
2019-04-30T04:48:00.217Z,15.43
2019-04-30T04:53:07.920Z,16.23
2019-04-30T04:58:13.118Z,16.00
2019-04-30T05:03:24.921Z,16.10
2019-04-30T05:08:30.523Z,16.27
2019-04-30T05:13:35.951Z,17.57
2019-04-30T05:18:41.410Z,15.90
2019-04-30T05:23:46.983Z,17.13
2019-04-30T05:28:52.985Z,17.23
2019-04-30T05:33:58.767Z,18.00
2019-04-30T05:39:04.538Z,17.47
2019-04-30T05:44:09.963Z,16.47
2019-04-30T05:49:15.451Z,18.07
2019-04-30T05:54:20.818Z,18.13
2019-04-30T05:59:26.331Z,17.67
2019-04-30T06:04:31.775Z,18.27
2019-04-30T06:09:48.510Z,17.60
2019-04-30T06:14:59.091Z,16.83
2019-04-30T06:20:17.460Z,16.00
2019-04-30T06:25:12.124Z,16.73
2019-04-30T06:30:19.853Z,15.50
2019-04-30T06:35:25.727Z,14.47
2019-04-30T06:40:31.459Z,14.83
2019-04-30T06:45:38.799Z,14.67
2019-04-30T06:50:44.921Z,13.43
2019-04-30T06:55:50.573Z,12.53
2019-04-30T07:00:56.033Z,12.10
2019-04-30T07:06:01.451Z,12.93
2019-04-30T07:11:15.026Z,12.70
2019-04-30T07:16:23.686Z,12.60
2019-04-30T07:21:31.547Z,11.57
2019-04-30T07:26:38.806Z,11.95
2019-04-30T07:31:43.451Z,9.83
2019-04-30T07:37:02.484Z,11.03
2019-04-30T07:41:55.973Z,10.03
2019-04-30T07:47:02.135Z,9.60
2019-04-30T07:52:10.837Z,9.80
2019-04-30T07:57:14.628Z,10.03
2019-04-30T08:02:20.753Z,10.65
2019-04-30T08:07:26.455Z,9.37
2019-04-30T08:12:36.424Z,10.47
2019-04-30T08:17:39.050Z,9.93
2019-04-30T08:22:44.610Z,9.80
2019-04-30T08:27:50.016Z,8.70
2019-04-30T08:32:55.266Z,8.93
2019-04-30T08:38:00.610Z,8.77
2019-04-30T08:43:06.366Z,9.67
2019-04-30T08:48:11.852Z,8.30
2019-04-30T08:53:28.987Z,7.13
2019-04-30T08:58:24.580Z,7.73
2019-04-30T09:03:30.094Z,7.07
2019-04-30T09:08:37.087Z,6.77
2019-04-30T09:13:42.559Z,6.97
2019-04-30T09:18:49.456Z,7.50
2019-04-30T09:23:54.874Z,7.60
2019-04-30T09:29:00.316Z,6.90
2019-04-30T09:34:15.168Z,7.90
2019-04-30T09:39:12.905Z,7.35
2019-04-30T09:44:19.491Z,6.83
2019-04-30T09:49:25.076Z,6.53
2019-04-30T09:54:30.979Z,6.40
2019-04-30T09:59:36.552Z,6.30
2019-04-30T10:04:42.457Z,7.03
2019-04-30T10:09:50.681Z,7.00
2019-04-30T10:14:55.778Z,7.80
2019-04-30T10:20:01.161Z,7.80
2019-04-30T10:25:09.258Z,7.03
2019-04-30T10:30:15.115Z,6.77
2019-04-30T10:35:20.619Z,7.00
2019-04-30T10:40:26.257Z,7.10
2019-04-30T10:45:32.158Z,6.67
2019-04-30T10:50:40.713Z,6.90
2019-04-30T10:55:44.718Z,7.17
2019-04-30T11:00:50.056Z,8.63
2019-04-30T11:05:55.393Z,7.40
2019-04-30T11:11:00.946Z,6.83
2019-04-30T11:16:14.771Z,7.63
2019-04-30T11:21:15.103Z,7.40
2019-04-30T11:26:21.197Z,8.27
2019-04-30T11:31:37.182Z,8.33
2019-04-30T11:36:43.047Z,7.43
2019-04-30T11:41:48.802Z,7.23
2019-04-30T11:47:11.328Z,6.70
2019-04-30T11:52:16.879Z,5.40
2019-04-30T11:57:22.390Z,7.20
2019-04-30T12:02:40.846Z,3.08
2019-04-30T12:07:53.172Z,2.98
2019-04-30T12:12:58.788Z,3.37
2019-04-30T12:18:04.590Z,2.47
2019-04-30T12:23:11.893Z,3.30
2019-04-30T12:28:17.150Z,2.87
2019-04-30T12:33:22.662Z,2.10
2019-04-30T12:38:30.025Z,2.10
2019-04-30T12:43:35.611Z,2.37
2019-04-30T12:48:53.906Z,1.67
2019-04-30T12:54:04.271Z,1.70
2019-04-30T12:59:11.714Z,1.90
2019-04-30T13:04:19.382Z,2.10
2019-04-30T13:09:25.460Z,1.70
2019-04-30T13:14:32.055Z,2.07
2019-04-30T13:19:37.991Z,2.23
2019-04-30T13:24:44.645Z,2.10
2019-04-30T13:29:58.862Z,3.20
2019-04-30T13:35:14.515Z,2.77
2019-04-30T13:40:34.590Z,3.17
2019-04-30T13:45:42.107Z,3.08
2019-04-30T13:50:47.606Z,3.40
2019-04-30T13:55:55.250Z,3.27
2019-04-30T14:01:02.205Z,3.83
2019-04-30T14:06:10.023Z,3.10
2019-04-30T14:11:16.151Z,4.57
2019-04-30T14:16:22.651Z,4.93
2019-04-30T14:21:35.043Z,5.20
2019-04-30T14:26:36.234Z,4.95
2019-04-30T14:31:45.294Z,7.10
2019-04-30T14:36:51.211Z,5.80
2019-04-30T14:41:59.581Z,5.47
2019-04-30T14:47:13.928Z,6.33
2019-04-30T14:52:21.142Z,7.43
2019-04-30T14:57:43.314Z,7.37
2019-04-30T15:02:53.818Z,9.60
2019-04-30T15:08:00.945Z,10.37
2019-04-30T15:13:09.742Z,10.43
2019-04-30T15:18:16.730Z,8.70
2019-04-30T15:23:41.577Z,9.33
2019-04-30T15:28:49.189Z,9.67
2019-04-30T15:34:02.865Z,10.40
2019-04-30T15:39:30.638Z,10.67
2019-04-30T15:44:40.117Z,9.10
2019-04-30T15:49:43.583Z,7.37
2019-04-30T15:54:50.590Z,7.70
2019-04-30T15:59:56.626Z,9.97
2019-04-30T16:05:10.933Z,10.87
2019-04-30T16:10:29.455Z,11.53
2019-04-30T16:15:35.774Z,11.10
2019-04-30T16:20:42.376Z,11.00
2019-04-30T16:25:49.723Z,9.73
2019-04-30T16:30:55.794Z,10.17
2019-04-30T16:36:02.202Z,13.37
2019-04-30T16:41:08.942Z,12.77
2019-04-30T16:46:16.111Z,12.47
2019-04-30T16:51:22.783Z,10.13
2019-04-30T16:56:29.197Z,11.43
2019-04-30T17:01:36.214Z,11.50
2019-04-30T17:06:48.808Z,13.30
2019-04-30T17:12:00.602Z,11.63
2019-04-30T17:17:07.966Z,12.53
2019-04-30T17:22:13.603Z,13.13
2019-04-30T17:27:22.077Z,13.63
2019-04-30T17:32:28.587Z,13.97
2019-04-30T17:37:37.404Z,14.20
2019-04-30T17:42:43.934Z,15.67
2019-04-30T17:47:49.759Z,13.70
2019-04-30T17:52:55.390Z,14.00
2019-04-30T17:58:02.682Z,14.83
2019-04-30T18:03:10.805Z,14.53
2019-04-30T18:08:17.014Z,14.93
2019-04-30T18:13:23.275Z,14.73
2019-04-30T18:18:44.795Z,14.63
2019-04-30T18:24:05.151Z,13.53
2019-04-30T18:29:11.082Z,14.33
2019-04-30T18:34:19.364Z,13.77
2019-04-30T18:39:25.555Z,14.43
2019-04-30T18:44:34.339Z,13.23
2019-04-30T18:49:40.836Z,13.50
2019-04-30T18:54:49.622Z,14.20
2019-04-30T18:59:56.213Z,13.33
2019-04-30T19:05:02.136Z,14.03
2019-04-30T19:10:17.096Z,14.13
2019-04-30T19:15:59.151Z,14.83
2019-04-30T19:20:43.182Z,16.55
2019-04-30T19:25:49.682Z,15.57
2019-04-30T19:31:00.382Z,16.37
2019-04-30T19:36:04.011Z,16.20
2019-04-30T19:41:10.864Z,16.27
2019-04-30T19:46:18.797Z,16.83
2019-04-30T19:51:25.733Z,16.60
2019-04-30T19:56:32.837Z,16.03
2019-04-30T20:01:39.498Z,15.73
2019-04-30T20:06:48.707Z,17.10
2019-04-30T20:11:56.860Z,17.00
2019-04-30T20:17:03.973Z,17.73
2019-04-30T20:22:10.616Z,18.27
2019-04-30T20:27:18.893Z,19.53
2019-04-30T20:32:33.884Z,19.90
2019-04-30T20:37:32.226Z,21.00
2019-04-30T20:42:40.152Z,20.88
2019-04-30T20:47:46.054Z,20.85
2019-04-30T20:52:52.808Z,21.53
2019-04-30T20:57:59.541Z,21.20
2019-04-30T21:03:06.063Z,22.43
2019-04-30T21:08:11.861Z,22.90
2019-04-30T21:13:19.366Z,24.67
2019-04-30T21:18:31.886Z,24.63
2019-04-30T21:23:39.822Z,23.75
2019-04-30T21:28:46.182Z,23.00
2019-04-30T21:33:54.635Z,23.07
2019-04-30T21:39:00.462Z,22.93
2019-04-30T21:44:07.322Z,24.80
2019-04-30T21:49:13.274Z,25.23
2019-04-30T21:54:19.202Z,25.15
2019-04-30T21:59:25.223Z,23.80
2019-04-30T22:04:31.194Z,25.87
2019-04-30T22:09:39.525Z,26.95
2019-04-30T22:14:45.353Z,28.30
2019-04-30T22:19:51.787Z,28.07
2019-04-30T22:24:59.661Z,28.40
2019-04-30T22:30:07.782Z,28.77
2019-04-30T22:35:22.263Z,29.70
2019-04-30T22:40:31.310Z,31.03
2019-04-30T22:45:41.986Z,29.70
2019-04-30T22:50:48.330Z,28.30
2019-04-30T22:55:53.953Z,28.73
2019-04-30T23:01:09.487Z,30.23
2019-04-30T23:06:15.766Z,32.37
2019-04-30T23:11:22.026Z,33.50
2019-04-30T23:16:27.870Z,34.33
2019-04-30T23:21:33.816Z,31.70
2019-04-30T23:26:39.174Z,32.60
2019-04-30T23:31:45.693Z,34.07
2019-04-30T23:36:51.166Z,30.67
2019-04-30T23:41:57.294Z,35.13
2019-04-30T23:47:02.825Z,35.10
2019-04-30T23:52:09.486Z,31.67
2019-04-30T23:57:16.223Z,28.63
